Data for 11/20/2012

Time Sea-Level Adjusted Pressure Absolute Pressure Temperature Relative Humidity Dew Point   
(mb) (inHg) (mb) (inHg) (C) (F) (%) (C) (F)
00:05 1017 30.03 846 24.98 8.8 47.9 44 -2.7 27.2
00:10 1017 30.03 846 24.98 8.8 47.8 45 -2.5 27.5
00:15 1017 30.03 846 24.98 8.4 47.2 47 -2.3 27.8
00:20 1017 30.03 846 24.98 8.6 47.4 44 -3.1 26.5
00:25 1017 30.03 846 24.98 9 48.2 44 -2.6 27.3
00:30 1017 30.03 846 24.98 9.3 48.7 43 -2.5 27.4
00:35 1017 30.03 846 24.98 9.1 48.3 44 -2.4 27.7
00:40 1017 30.03 846 24.98 8.9 48.1 45 -2.4 27.6
00:45 1017 30.03 846 24.98 9 48.2 44 -2.7 27.2
00:50 1017 30.03 846 24.98 9.5 49.1 43 -2.3 27.9
00:55 1017 30.03 846 24.98 9.8 49.6 45 -1.6 29.2
01:00 1017 30.03 846 24.98 9.4 48.9 48 -1.1 30
01:05 1017 30.03 846 24.98 8.7 47.7 49 -1.4 29.5
01:10 1017 30.03 846 24.98 9.1 48.5 48 -1.3 29.6
01:15 1017 30.03 846 24.98 9.2 48.5 48 -1.3 29.6
01:20 1017 30.03 846 24.98 9.1 48.4 48 -1.4 29.5
01:25 1017 30.03 846 24.98 9 48.2 47 -1.6 29.2
01:30 1017 30.03 846 24.98 8.8 47.8 49 -1.3 29.7
01:35 1017 30.03 846 24.98 8.5 47.2 50 -1.3 29.7
01:40 1017 30.03 846 24.98 8.4 47.1 49 -1.8 28.7
01:45 1017 30.03 846 24.98 9.1 48.3 46 -2 28.4
01:50 1017 30.03 846 24.98 9.6 49.3 42 -2.7 27.1
01:55 1017 30.03 846 24.98 10.1 50.3 42 -2.2 28.1
02:00 1017 30.03 846 24.98 10.1 50.2 42 -2 28.3
02:05 1017 30.03 846 24.98 9.6 49.4 43 -2.3 27.8
02:10 1017 30.03 846 24.98 9.9 49.8 43 -2 28.5
02:15 1017 30.03 846 24.98 9.6 49.3 44 -2 28.4
02:20 1017 30.03 846 24.98 9.5 49.1 44 -2.1 28.3
02:25 1017 30.03 846 24.98 9.4 49 44 -2.1 28.2
02:30 1017 30.03 846 24.98 9.4 48.9 44 -2.3 27.9
02:35 1016 30 846 24.98 9.7 49.5 42 -2.5 27.5
02:40 1016 30 846 24.98 10 50 42 -2.1 28.2
02:45 1016 30 846 24.98 9.8 49.6 43 -2.1 28.3
02:50 1016 30 846 24.98 10 50 42 -2.1 28.1
02:55 1016 30 846 24.98 9.8 49.6 44 -1.9 28.5
03:00 1016 30 845 24.95 9.7 49.5 44 -1.9 28.6
03:05 1016 30 845 24.95 9.7 49.4 43 -2.4 27.7
03:10 1016 30 845 24.95 9.8 49.7 43 -2 28.5
03:15 1016 30 845 24.95 9.8 49.6 43 -2 28.4
03:20 1016 30 845 24.95 9.9 49.8 43 -2.2 28
03:25 1016 30 845 24.95 9.6 49.4 41 -2.9 26.8
03:30 1016 30 845 24.95 10.2 50.4 41 -2.4 27.6
03:35 1016 30 845 24.95 10.5 50.8 39 -2.9 26.7
03:40 1016 30 845 24.95 10.9 51.6 39 -2.6 27.3
03:45 1016 30 845 24.95 10.9 51.5 37 -3.1 26.4
03:50 1016 30 845 24.95 11.2 52.2 37 -2.7 27.1
03:55 1016 30 846 24.98 11.1 52 37 -3 26.6
04:00 1017 30.03 846 24.98 11.3 52.3 39 -2.3 27.9
04:05 1017 30.03 846 24.98 11.1 51.9 36 -3.4 25.8
04:10 1017 30.03 846 24.98 11.6 52.8 38 -2.3 27.9
04:15 1017 30.03 846 24.98 11 51.8 39 -2.5 27.5
04:20 1017 30.03 846 24.98 10.7 51.2 40 -2.2 28
04:25 1017 30.03 846 24.98 10.7 51.2 42 -1.7 28.9
04:30 1017 30.03 846 24.98 10.6 51 39 -2.9 26.8
04:35 1017 30.03 846 24.98 10.9 51.5 40 -2.2 28
04:40 1017 30.03 846 24.98 10.6 51.1 39 -2.7 27.2
04:45 1017 30.03 846 24.98 11 51.7 38 -2.8 27
04:50 1017 30.03 846 24.98 11.4 52.6 36 -3.1 26.4
04:55 1016 30 845 24.95 11.3 52.4 36 -3 26.6
05:00 1016 30 845 24.95 11.3 52.3 37 -3 26.6
05:05 1016 30 845 24.95 10.7 51.3 39 -2.7 27.1
05:10 1016 30 845 24.95 10.6 51.1 39 -2.6 27.4
05:15 1016 30 846 24.98 10.6 51 39 -2.8 27
05:20 1016 30 846 24.98 10.6 51 39 -2.9 26.8
05:25 1016 30 846 24.98 10.5 50.9 41 -2.1 28.2
05:30 1016 30 845 24.95 10 50 40 -2.8 26.9
05:35 1016 30 846 24.98 10.5 50.9 38 -3.1 26.4
05:40 1016 30 846 24.98 10.8 51.4 39 -2.6 27.3
05:45 1016 30 846 24.98 10.2 50.4 40 -2.8 26.9
05:50 1016 30 846 24.98 10.2 50.3 41 -2.5 27.5
05:55 1016 30 846 24.98 9.8 49.6 41 -2.6 27.2
06:00 1016 30 846 24.98 9.7 49.4 41 -3.1 26.4
06:05 1016 30 845 24.95 10 50.1 40 -3 26.7
06:10 1016 30 845 24.95 10.1 50.2 39 -3.3 26
06:15 1016 30 846 24.98 10.3 50.6 39 -3 26.7
06:20 1016 30 846 24.98 10.2 50.3 40 -2.9 26.7
06:25 1016 30 846 24.98 10 49.9 40 -2.9 26.7
06:30 1016 30 846 24.98 10 50 39 -3.1 26.4
06:35 1016 30 846 24.98 10.1 50.2 41 -2.6 27.3
06:40 1016 30 846 24.98 10.2 50.4 39 -3 26.7
06:45 1016 30 846 24.98 10.7 51.2 39 -2.9 26.9
06:50 1016 30 846 24.98 10.5 50.9 40 -2.6 27.3
06:55 1016 30 846 24.98 10.6 51 39 -2.7 27.1
07:00 1016 30 846 24.98 10.5 50.9 38 -3.1 26.5
07:05 1016 30 846 24.98 10.7 51.3 38 -3 26.6
07:10 1016 30 846 24.98 10.9 51.6 38 -2.7 27.1
07:15 1016 30 846 24.98 10.9 51.6 38 -2.9 26.8
07:20 1016 30 846 24.98 10.9 51.6 38 -3 26.6
07:25 1016 30 846 24.98 10.6 51 41 -2.2 28
07:30 1016 30 846 24.98 9.8 49.7 42 -2.4 27.7
07:35 1016 30 846 24.98 9.6 49.3 43 -2.4 27.7
07:40 1017 30.03 846 24.98 9.7 49.4 40 -3.1 26.3
07:45 1017 30.03 846 24.98 10.3 50.5 41 -2.3 27.8
07:50 1017 30.03 846 24.98 9.9 49.9 41 -2.5 27.5
07:55 1017 30.03 846 24.98 9.9 49.8 41 -2.6 27.3
08:00 1017 30.03 846 24.98 9.8 49.6 42 -2.5 27.4
08:05 1017 30.03 846 24.98 9.8 49.7 42 -2.3 27.9
08:10 1017 30.03 846 24.98 9.8 49.7 43 -2.1 28.2
08:15 1017 30.03 846 24.98 9.7 49.5 44 -2 28.3
08:20 1017 30.03 846 24.98 9.5 49.1 44 -2.1 28.2
08:25 1016 30 846 24.98 9.6 49.2 43 -2.2 28
08:30 1016 30 846 24.98 9.6 49.2 43 -2.2 28
08:35 1016 30 846 24.98 9.4 48.9 44 -2.2 28
08:40 1016 30 846 24.98 9.2 48.6 44 -2.4 27.7
08:45 1016 30 846 24.98 9.5 49 43 -2.6 27.4
08:50 1016 30 846 24.98 9.6 49.3 43 -2.4 27.7
08:55 1016 30 846 24.98 9.7 49.4 42 -2.6 27.3
09:00 1016 30 846 24.98 9.6 49.3 43 -2.3 27.9
09:05 1016 30 846 24.98 9.7 49.4 43 -2.3 27.9
09:10 1016 30 845 24.95 11 51.7 39 -2.3 27.8
09:15 1016 30 845 24.95 11.2 52.1 38 -2.4 27.7
09:20 1016 30 845 24.95 11.4 52.6 36 -3 26.6
09:25 1016 30 846 24.98 11.8 53.2 37 -2.6 27.4
09:30 1016 30 845 24.95 11.7 53.1 36 -2.6 27.3
09:35 1016 30 845 24.95 12 53.5 35 -3 26.6
09:40 1016 30 845 24.95 12.4 54.2 34 -2.9 26.8
09:45 1016 30 845 24.95 12.3 54.1 35 -2.5 27.4
09:50 1016 30 846 24.98 12.2 53.9 36 -2.3 27.8
09:55 1016 30 846 24.98 12 53.6 37 -2.3 27.8
10:00 1016 30 845 24.95 12 53.7 36 -2.4 27.8
10:05 1016 30 845 24.95 12.2 54 36 -2.4 27.7
10:10 1016 30 845 24.95 11.9 53.3 38 -1.9 28.6
10:15 1016 30 845 24.95 11.8 53.3 37 -2.4 27.6
10:20 1016 30 845 24.95 11.9 53.4 35 -3.1 26.4
10:25 1016 30 845 24.95 12.5 54.5 35 -2.5 27.4
10:30 1016 30 845 24.95 12.6 54.7 34 -2.8 27
10:35 1016 30 845 24.95 12.7 54.9 33 -3.1 26.3
10:40 1016 30 845 24.95 12.6 54.7 36 -1.9 28.5
10:45 1016 30 845 24.95 12 53.6 37 -2.1 28.3
10:50 1016 30 846 24.98 12.1 53.7 37 -2.2 28.1
10:55 1016 30 846 24.98 12.1 53.8 37 -2.2 28
11:00 1016 30 845 24.95 12.1 53.8 37 -2.1 28.2
11:05 1016 30 845 24.95 11.9 53.3 39 -1.7 29
11:10 1016 30 845 24.95 11.6 52.8 40 -1.4 29.5
11:15 1016 30 845 24.95 11.2 52.1 42 -1.3 29.6
11:20 1016 30 845 24.95 11.2 52.2 41 -1.6 29.1
11:25 1016 30 845 24.95 11.5 52.7 41 -1.4 29.5
11:30 1016 30 845 24.95 11.8 53.2 40 -1.3 29.7
11:35 1016 30 845 24.95 12 53.6 40 -1.1 30
11:40 1016 30 845 24.95 11.8 53.3 38 -2 28.5
11:45 1016 30 845 24.95 12 53.6 40 -1 30.2
11:50 1016 30 845 24.95 11.7 53 42 -0.9 30.4
11:55 1016 30 845 24.95 11.7 53 42 -0.8 30.6
12:00 1016 30 845 24.95 12.1 53.8 40 -1 30.2
12:05 1016 30 845 24.95 12.2 53.9 42 -0.4 31.3
12:10 1016 30 845 24.95 12.3 54.2 39 -1.2 29.9
12:15 1016 30 845 24.95 12.5 54.5 41 -0.4 31.2
12:20 1016 30 845 24.95 12.4 54.3 42 -0.2 31.6
12:25 1016 30 845 24.95 12.6 54.6 42 0 32.1
12:30 1016 30 845 24.95 12.9 55.3 39 -0.7 30.8
12:35 1016 30 845 24.95 13 55.3 40 -0.2 31.7
12:40 1016 30 845 24.95 12.9 55.3 40 -0.3 31.5
12:45 1016 30 845 24.95 12.4 54.3 43 0.1 32.2
12:50 1016 30 845 24.95 12.1 53.8 43 -0.2 31.7
12:55 1016 30 845 24.95 12 53.6 42 -0.5 31
13:00 1016 30 845 24.95 12.5 54.5 41 -0.4 31.3
13:05 1016 30 845 24.95 12.9 55.2 39 -0.7 30.8
13:10 1016 30 845 24.95 13.1 55.5 38 -1 30.3
13:15 1016 30 845 24.95 13 55.3 38 -0.8 30.6
13:20 1015 29.97 845 24.95 13.1 55.6 38 -0.8 30.5
13:25 1015 29.97 845 24.95 13.3 55.9 38 -0.6 31
13:30 1015 29.97 845 24.95 13.1 55.5 38 -0.9 30.4
13:35 1015 29.97 845 24.95 13 55.5 38 -0.9 30.4
13:40 1015 29.97 844 24.92 13.2 55.7 36 -1.4 29.5
13:45 1015 29.97 844 24.92 13.1 55.6 38 -0.7 30.8
13:50 1015 29.97 844 24.92 13.1 55.5 38 -0.8 30.5
13:55 1015 29.97 844 24.92 12.9 55.2 38 -0.9 30.5
14:00 1015 29.97 844 24.92 12.8 55 38 -1 30.1
14:05 1015 29.97 844 24.92 12.8 55 39 -0.8 30.6
14:10 1015 29.97 844 24.92 12.8 55.1 38 -1.1 30.1
14:15 1015 29.97 844 24.92 13 55.4 38 -0.8 30.5
14:20 1015 29.97 844 24.92 13.1 55.6 38 -0.7 30.7
14:25 1015 29.97 844 24.92 13.3 56 38 -0.8 30.6
14:30 1015 29.97 844 24.92 13.4 56.1 38 -0.5 31.1
14:35 1015 29.97 844 24.92 13.7 56.7 36 -1.2 29.9
14:40 1014 29.94 844 24.92 13.8 56.9 37 -0.4 31.3
14:45 1014 29.94 844 24.92 13.9 56.9 36 -0.7 30.7
14:50 1014 29.94 844 24.92 14.3 57.7 34 -1.2 29.8
14:55 1014 29.94 844 24.92 14.3 57.8 35 -0.7 30.7
15:00 1014 29.94 844 24.92 14 57.1 35 -1.3 29.6
15:05 1014 29.94 843 24.89 13.7 56.6 37 -0.8 30.5
15:10 1014 29.94 843 24.89 13.7 56.7 36 -0.8 30.5
15:15 1014 29.94 843 24.89 13.5 56.4 35 -1.7 29
15:20 1014 29.94 843 24.89 13.6 56.4 37 -0.9 30.4
15:25 1014 29.94 843 24.89 13.6 56.6 39 0.1 32.1
15:30 1014 29.94 843 24.89 13.9 56.9 37 -0.6 31
15:35 1014 29.94 843 24.89 14 57.2 35 -1.2 29.8
15:40 1014 29.94 843 24.89 14.2 57.5 36 -0.6 30.9
15:45 1014 29.94 843 24.89 14.3 57.8 36 -0.3 31.4
15:50 1014 29.94 844 24.92 14.4 57.9 36 -0.3 31.5
15:55 1014 29.94 844 24.92 14.4 57.8 35 -0.7 30.7
16:00 1014 29.94 844 24.92 14.3 57.7 37 -0.3 31.4
16:05 1014 29.94 844 24.92 14 57.1 37 -0.4 31.4
16:10 1014 29.94 844 24.92 13.7 56.6 38 -0.3 31.4
16:15 1015 29.97 844 24.92 13 55.4 41 0.2 32.4
16:20 1015 29.97 844 24.92 12.6 54.7 40 -0.6 30.9
16:25 1015 29.97 844 24.92 12.5 54.6 40 -0.5 31.1
16:30 1015 29.97 844 24.92 12.5 54.6 40 -0.8 30.6
16:35 1015 29.97 844 24.92 12.5 54.4 41 -0.5 31.2
16:40 1015 29.97 844 24.92 12.4 54.3 41 -0.4 31.3
16:45 1015 29.97 844 24.92 12.2 53.9 42 -0.1 31.8
16:50 1015 29.97 844 24.92 12 53.6 41 -0.6 30.8
16:55 1015 29.97 844 24.92 11.9 53.5 41 -1 30.2
17:00 1015 29.97 844 24.92 12.1 53.7 41 -0.6 31
17:05 1015 29.97 844 24.92 11.9 53.5 42 -0.5 31.1
17:10 1015 29.97 844 24.92 11.9 53.4 41 -0.8 30.6
17:15 1015 29.97 844 24.92 11.7 53.1 42 -0.6 31
17:20 1015 29.97 844 24.92 11.6 52.8 43 -0.6 30.8
17:25 1015 29.97 844 24.92 11.5 52.8 44 -0.3 31.5
17:30 1015 29.97 844 24.92 11.5 52.6 43 -0.8 30.6
17:35 1015 29.97 844 24.92 11.5 52.6 44 -0.3 31.4
17:40 1015 29.97 844 24.92 11.5 52.8 42 -0.8 30.5
17:45 1015 29.97 844 24.92 11.6 52.8 42 -0.8 30.6
17:50 1015 29.97 844 24.92 11.5 52.7 43 -0.7 30.8
17:55 1015 29.97 844 24.92 11.4 52.4 45 -0.2 31.6
18:00 1015 29.97 844 24.92 11.2 52.1 45 -0.3 31.5
18:05 1015 29.97 844 24.92 11.2 52.1 44 -0.7 30.8
18:10 1015 29.97 844 24.92 11.1 51.9 44 -0.8 30.6
18:15 1014 29.94 844 24.92 11.1 52 44 -0.5 31
18:20 1014 29.94 844 24.92 11.2 52.1 45 -0.4 31.3
18:25 1015 29.97 844 24.92 11.1 51.9 45 -0.3 31.5
18:30 1015 29.97 844 24.92 11.1 52 46 -0.1 31.8
18:35 1015 29.97 844 24.92 11 51.9 46 -0 32
18:40 1015 29.97 844 24.92 10.9 51.6 47 0.1 32.1
18:45 1015 29.97 844 24.92 11 51.8 46 -0.1 31.9
18:50 1015 29.97 844 24.92 11 51.8 45 -0.5 31.1
18:55 1015 29.97 844 24.92 11 51.8 43 -1 30.2
19:00 1015 29.97 844 24.92 11.3 52.3 45 -0.3 31.5
19:05 1015 29.97 844 24.92 11.3 52.3 46 0.1 32.2
19:10 1015 29.97 844 24.92 11 51.8 46 -0 32
19:15 1015 29.97 844 24.92 10.6 51.2 46 -0.4 31.3
19:20 1015 29.97 844 24.92 10.5 50.9 44 -1.2 29.9
19:25 1014 29.94 844 24.92 11.1 51.9 43 -0.9 30.4
19:30 1015 29.97 844 24.92 11 51.9 45 -0.5 31.1
19:35 1014 29.94 844 24.92 10.8 51.5 44 -1 30.2
19:40 1014 29.94 844 24.92 11.3 52.4 40 -1.6 29
19:45 1014 29.94 843 24.89 11.6 52.9 41 -1.2 29.8
19:50 1014 29.94 843 24.89 11.5 52.7 42 -1 30.3
19:55 1014 29.94 843 24.89 11.4 52.5 41 -1.4 29.4
20:00 1014 29.94 843 24.89 11.3 52.3 43 -0.8 30.5
20:05 1014 29.94 843 24.89 10.9 51.6 43 -1.3 29.7
20:10 1014 29.94 843 24.89 11 51.9 45 -0.5 31.1
20:15 1014 29.94 843 24.89 10.8 51.5 44 -0.9 30.3
20:20 1014 29.94 843 24.89 11 51.7 43 -1 30.2
20:25 1014 29.94 843 24.89 11.2 52.2 43 -0.8 30.6
20:30 1014 29.94 843 24.89 11.2 52.2 43 -0.8 30.5
20:35 1014 29.94 843 24.89 11.1 51.9 44 -0.7 30.7
20:40 1014 29.94 843 24.89 11 51.8 43 -1 30.2
20:45 1014 29.94 844 24.92 11 51.7 44 -0.8 30.6
20:50 1014 29.94 844 24.92 10.9 51.5 44 -0.8 30.6
20:55 1014 29.94 844 24.92 10.8 51.4 45 -0.6 30.9
21:00 1015 29.97 844 24.92 10.7 51.3 45 -0.6 31
21:05 1015 29.97 844 24.92 10.6 51 46 -0.6 30.9
21:10 1015 29.97 844 24.92 10.3 50.6 48 -0.3 31.5
21:15 1014 29.94 844 24.92 10 50.1 48 -0.5 31.2
21:20 1014 29.94 844 24.92 10 50 47 -0.7 30.7
21:25 1014 29.94 844 24.92 10 50 46 -1.1 30.1
21:30 1014 29.94 843 24.89 10.2 50.3 44 -1.5 29.4
21:35 1014 29.94 843 24.89 10.6 51 43 -1.3 29.6
21:40 1014 29.94 843 24.89 10.7 51.2 43 -1.2 29.8
21:45 1014 29.94 843 24.89 10.5 50.9 44 -1.3 29.7
21:50 1014 29.94 843 24.89 10.7 51.3 43 -1.3 29.6
21:55 1014 29.94 843 24.89 10.7 51.3 43 -1.4 29.5
22:00 1014 29.94 843 24.89 10.5 51 44 -1 30.1
22:05 1014 29.94 843 24.89 10.6 51.1 43 -1.5 29.2
22:10 1014 29.94 843 24.89 10.7 51.3 43 -1.3 29.6
22:15 1014 29.94 843 24.89 10.7 51.2 42 -1.5 29.2
22:20 1014 29.94 843 24.89 10.7 51.2 44 -1.1 30.1
22:25 1014 29.94 843 24.89 10.6 51.1 42 -1.6 29.2
22:30 1014 29.94 843 24.89 10.8 51.5 42 -1.4 29.4
22:35 1014 29.94 843 24.89 10.8 51.4 42 -1.5 29.3
22:40 1014 29.94 843 24.89 11 51.8 39 -2.5 27.4
22:45 1014 29.94 843 24.89 11.3 52.3 40 -1.9 28.5
22:50 1014 29.94 843 24.89 11.3 52.3 39 -2.3 27.9
22:55 1014 29.94 843 24.89 11.2 52.2 39 -2.1 28.2
23:00 1014 29.94 843 24.89 11.2 52.1 40 -2 28.4
23:05 1014 29.94 843 24.89 11.1 51.9 40 -2 28.5
23:10 1014 29.94 843 24.89 10.9 51.7 40 -2.1 28.3
23:15 1014 29.94 843 24.89 11 51.7 40 -2.2 28
23:20 1014 29.94 843 24.89 11.1 51.9 39 -2.5 27.5
23:25 1013 29.91 843 24.89 11.2 52.1 37 -2.9 26.7
23:30 1013 29.91 843 24.89 11.5 52.6 36 -3.1 26.4
23:35 1013 29.91 843 24.89 11.7 53.1 34 -3.5 25.7
23:40 1013 29.91 843 24.89 11.8 53.2 36 -2.7 27.1
23:45 1013 29.91 843 24.89 11.6 53 35 -3.3 26.1
23:50 1013 29.91 842 24.86 11.8 53.2 36 -2.9 26.8
23:55 1013 29.91 842 24.86 11.7 53 36 -2.8 27
24:00 1013 29.91 843 24.89 11.5 52.6 37 -2.7 27.2